sensor_id;sensor_type;location;lat;lon;timestamp;temperature;humidity
57030;DHT22;42920;45.306;20.448;2022-12-10T00:00:22;308.10;2304.00
57030;DHT22;42920;45.306;20.448;2022-12-10T00:02:48;308.10;2304.00
57030;DHT22;42920;45.306;20.448;2022-12-10T00:05:13;308.10;2304.00
57030;DHT22;42920;45.306;20.448;2022-12-10T00:07:39;332.80;2329.60
57030;DHT22;42920;45.306;20.448;2022-12-10T00:10:05;332.80;2329.60
57030;DHT22;42920;45.306;20.448;2022-12-10T00:12:31;332.80;2329.60
57030;DHT22;42920;45.306;20.448;2022-12-10T00:14:57;332.80;2329.60
57030;DHT22;42920;45.306;20.448;2022-12-10T00:17:22;332.80;2329.60
57030;DHT22;42920;45.306;20.448;2022-12-10T00:19:48;332.80;2329.60
57030;DHT22;42920;45.306;20.448;2022-12-10T00:22:14;332.80;2329.60
57030;DHT22;42920;45.306;20.448;2022-12-10T00:24:40;332.80;2329.60
57030;DHT22;42920;45.306;20.448;2022-12-10T00:27:06;332.80;2329.60
57030;DHT22;42920;45.306;20.448;2022-12-10T00:29:32;332.80;2329.60
57030;DHT22;42920;45.306;20.448;2022-12-10T00:31:58;332.80;2329.60
57030;DHT22;42920;45.306;20.448;2022-12-10T00:34:23;332.80;2329.60
57030;DHT22;42920;45.306;20.448;2022-12-10T00:36:49;308.10;2304.00
57030;DHT22;42920;45.306;20.448;2022-12-10T00:39:17;308.10;2304.00
57030;DHT22;42920;45.306;20.448;2022-12-10T00:41:43;308.10;2304.00
57030;DHT22;42920;45.306;20.448;2022-12-10T00:44:09;308.10;2304.00
57030;DHT22;42920;45.306;20.448;2022-12-10T00:46:35;308.10;2304.00
57030;DHT22;42920;45.306;20.448;2022-12-10T00:49:02;308.10;2304.00
57030;DHT22;42920;45.306;20.448;2022-12-10T00:51:28;308.10;2304.00
57030;DHT22;42920;45.306;20.448;2022-12-10T00:53:56;308.10;2304.00
57030;DHT22;42920;45.306;20.448;2022-12-10T00:56:25;308.00;2304.00
57030;DHT22;42920;45.306;20.448;2022-12-10T00:58:52;308.00;2304.00
57030;DHT22;42920;45.306;20.448;2022-12-10T01:01:44;308.00;2304.00
57030;DHT22;42920;45.306;20.448;2022-12-10T01:04:13;307.90;2304.00
57030;DHT22;42920;45.306;20.448;2022-12-10T01:06:53;307.90;2304.00
57030;DHT22;42920;45.306;20.448;2022-12-10T01:09:23;307.90;2304.00
57030;DHT22;42920;45.306;20.448;2022-12-10T01:11:50;307.90;2304.00
57030;DHT22;42920;45.306;20.448;2022-12-10T01:14:23;307.90;2304.00
57030;DHT22;42920;45.306;20.448;2022-12-10T01:16:52;307.90;2304.00
57030;DHT22;42920;45.306;20.448;2022-12-10T01:19:18;308.00;2304.00
57030;DHT22;42920;45.306;20.448;2022-12-10T01:21:44;308.00;2304.00
57030;DHT22;42920;45.306;20.448;2022-12-10T01:24:10;308.00;2304.00
57030;DHT22;42920;45.306;20.448;2022-12-10T01:26:36;308.00;2304.00
57030;DHT22;42920;45.306;20.448;2022-12-10T01:29:03;308.00;2304.00
57030;DHT22;42920;45.306;20.448;2022-12-10T01:31:35;308.00;2304.00
57030;DHT22;42920;45.306;20.448;2022-12-10T01:34:01;308.00;2304.00
57030;DHT22;42920;45.306;20.448;2022-12-10T01:36:36;308.00;2304.00
57030;DHT22;42920;45.306;20.448;2022-12-10T01:39:05;308.10;2304.00
57030;DHT22;42920;45.306;20.448;2022-12-10T01:41:41;308.10;2304.00
57030;DHT22;42920;45.306;20.448;2022-12-10T01:46:39;308.00;2304.00
57030;DHT22;42920;45.306;20.448;2022-12-10T01:49:12;307.80;2304.00
57030;DHT22;42920;45.306;20.448;2022-12-10T01:51:40;308.00;2304.00
57030;DHT22;42920;45.306;20.448;2022-12-10T01:54:09;308.00;2304.00
57030;DHT22;42920;45.306;20.448;2022-12-10T01:56:38;308.00;2304.00
57030;DHT22;42920;45.306;20.448;2022-12-10T01:59:06;307.90;2304.00
57030;DHT22;42920;45.306;20.448;2022-12-10T02:01:50;308.00;2304.00
57030;DHT22;42920;45.306;20.448;2022-12-10T02:10:32;307.90;2304.00
57030;DHT22;42920;45.306;20.448;2022-12-10T02:13:11;307.90;2304.00
57030;DHT22;42920;45.306;20.448;2022-12-10T02:15:48;307.90;2304.00
57030;DHT22;42920;45.306;20.448;2022-12-10T02:18:31;307.90;2304.00
57030;DHT22;42920;45.306;20.448;2022-12-10T02:21:03;307.90;2304.00
57030;DHT22;42920;45.306;20.448;2022-12-10T02:23:35;308.00;2304.00
57030;DHT22;42920;45.306;20.448;2022-12-10T02:31:11;308.00;2304.00
57030;DHT22;42920;45.306;20.448;2022-12-10T02:33:46;308.00;2304.00
57030;DHT22;42920;45.306;20.448;2022-12-10T02:36:15;308.00;2304.00
57030;DHT22;42920;45.306;20.448;2022-12-10T02:38:41;308.00;2304.00
57030;DHT22;42920;45.306;20.448;2022-12-10T02:41:18;308.00;2304.00
57030;DHT22;42920;45.306;20.448;2022-12-10T02:43:51;308.00;2304.00
57030;DHT22;42920;45.306;20.448;2022-12-10T02:46:17;308.00;2304.00
57030;DHT22;42920;45.306;20.448;2022-12-10T02:48:45;308.00;2304.00
57030;DHT22;42920;45.306;20.448;2022-12-10T02:51:12;308.00;2304.00
57030;DHT22;42920;45.306;20.448;2022-12-10T02:53:44;308.00;2304.00
57030;DHT22;42920;45.306;20.448;2022-12-10T03:01:11;308.00;2304.00
57030;DHT22;42920;45.306;20.448;2022-12-10T03:03:44;308.00;2304.00
57030;DHT22;42920;45.306;20.448;2022-12-10T03:09:01;308.00;2304.00
57030;DHT22;42920;45.306;20.448;2022-12-10T03:11:29;308.00;2304.00
57030;DHT22;42920;45.306;20.448;2022-12-10T03:14:10;308.10;2304.00
57030;DHT22;42920;45.306;20.448;2022-12-10T03:16:59;308.10;2304.00
57030;DHT22;42920;45.306;20.448;2022-12-10T03:19:35;308.00;2304.00
57030;DHT22;42920;45.306;20.448;2022-12-10T03:22:03;308.00;2304.00
57030;DHT22;42920;45.306;20.448;2022-12-10T03:24:30;308.00;2304.00
57030;DHT22;42920;45.306;20.448;2022-12-10T03:26:58;308.00;2304.00
57030;DHT22;42920;45.306;20.448;2022-12-10T03:29:37;308.00;2304.00
57030;DHT22;42920;45.306;20.448;2022-12-10T03:32:04;308.10;2304.00
57030;DHT22;42920;45.306;20.448;2022-12-10T03:34:31;308.10;2304.00
57030;DHT22;42920;45.306;20.448;2022-12-10T03:36:58;332.80;2329.60
57030;DHT22;42920;45.306;20.448;2022-12-10T03:39:25;332.90;2329.60
57030;DHT22;42920;45.306;20.448;2022-12-10T03:41:51;332.90;2329.60
57030;DHT22;42920;45.306;20.448;2022-12-10T03:44:30;332.80;2329.60
57030;DHT22;42920;45.306;20.448;2022-12-10T03:46:56;332.90;2329.60
57030;DHT22;42920;45.306;20.448;2022-12-10T03:49:23;332.90;2329.60
57030;DHT22;42920;45.306;20.448;2022-12-10T03:51:48;332.80;2329.60
57030;DHT22;42920;45.306;20.448;2022-12-10T03:54:14;332.80;2329.60
57030;DHT22;42920;45.306;20.448;2022-12-10T03:56:40;332.80;2329.60
57030;DHT22;42920;45.306;20.448;2022-12-10T03:59:06;332.80;2329.60
57030;DHT22;42920;45.306;20.448;2022-12-10T04:01:31;332.80;2329.60
57030;DHT22;42920;45.306;20.448;2022-12-10T04:03:57;332.80;2329.60
57030;DHT22;42920;45.306;20.448;2022-12-10T04:06:23;332.80;2329.60
57030;DHT22;42920;45.306;20.448;2022-12-10T04:08:48;332.80;2329.60
57030;DHT22;42920;45.306;20.448;2022-12-10T04:11:15;332.80;2329.60
57030;DHT22;42920;45.306;20.448;2022-12-10T04:13:42;308.10;2304.00
57030;DHT22;42920;45.306;20.448;2022-12-10T04:16:27;308.10;2304.00
57030;DHT22;42920;45.306;20.448;2022-12-10T04:18:58;308.10;2304.00
57030;DHT22;42920;45.306;20.448;2022-12-10T04:21:24;308.10;2304.00
57030;DHT22;42920;45.306;20.448;2022-12-10T04:24:09;308.10;2304.00
57030;DHT22;42920;45.306;20.448;2022-12-10T04:26:55;308.10;2304.00
57030;DHT22;42920;45.306;20.448;2022-12-10T04:29:27;308.10;2304.00
57030;DHT22;42920;45.306;20.448;2022-12-10T04:31:54;308.10;2304.00
57030;DHT22;42920;45.306;20.448;2022-12-10T04:34:20;308.10;2304.00
57030;DHT22;42920;45.306;20.448;2022-12-10T04:36:46;308.10;2304.00
57030;DHT22;42920;45.306;20.448;2022-12-10T04:39:12;308.10;2304.00
57030;DHT22;42920;45.306;20.448;2022-12-10T04:41:40;308.10;2304.00
57030;DHT22;42920;45.306;20.448;2022-12-10T04:44:06;308.10;2304.00
57030;DHT22;42920;45.306;20.448;2022-12-10T04:46:32;308.10;2304.00
57030;DHT22;42920;45.306;20.448;2022-12-10T04:48:58;308.10;2304.00
57030;DHT22;42920;45.306;20.448;2022-12-10T04:51:24;308.10;2304.00
57030;DHT22;42920;45.306;20.448;2022-12-10T04:53:50;308.00;2304.00
57030;DHT22;42920;45.306;20.448;2022-12-10T04:56:15;308.00;2304.00
57030;DHT22;42920;45.306;20.448;2022-12-10T04:58:41;308.00;2304.00
57030;DHT22;42920;45.306;20.448;2022-12-10T05:01:09;308.00;2304.00
57030;DHT22;42920;45.306;20.448;2022-12-10T05:03:35;308.00;2304.00
57030;DHT22;42920;45.306;20.448;2022-12-10T05:06:06;308.00;2304.00
57030;DHT22;42920;45.306;20.448;2022-12-10T05:08:33;307.90;2304.00
57030;DHT22;42920;45.306;20.448;2022-12-10T05:11:03;307.90;2304.00
57030;DHT22;42920;45.306;20.448;2022-12-10T05:13:29;308.00;2304.00
57030;DHT22;42920;45.306;20.448;2022-12-10T05:15:55;307.90;2304.00
57030;DHT22;42920;45.306;20.448;2022-12-10T05:18:21;308.00;2304.00
57030;DHT22;42920;45.306;20.448;2022-12-10T05:20:47;307.90;2304.00
57030;DHT22;42920;45.306;20.448;2022-12-10T05:23:13;307.90;2304.00
57030;DHT22;42920;45.306;20.448;2022-12-10T05:26:09;308.00;2304.00
57030;DHT22;42920;45.306;20.448;2022-12-10T05:28:37;308.00;2304.00
57030;DHT22;42920;45.306;20.448;2022-12-10T05:31:04;308.10;2304.00
57030;DHT22;42920;45.306;20.448;2022-12-10T05:33:31;308.10;2304.00
57030;DHT22;42920;45.306;20.448;2022-12-10T05:35:59;308.10;2304.00
57030;DHT22;42920;45.306;20.448;2022-12-10T05:38:28;308.10;2304.00
57030;DHT22;42920;45.306;20.448;2022-12-10T05:40:55;308.10;2304.00
57030;DHT22;42920;45.306;20.448;2022-12-10T05:43:21;308.10;2304.00
57030;DHT22;42920;45.306;20.448;2022-12-10T05:45:47;308.10;2304.00
57030;DHT22;42920;45.306;20.448;2022-12-10T05:48:14;308.10;2304.00
57030;DHT22;42920;45.306;20.448;2022-12-10T05:50:41;308.10;2304.00
57030;DHT22;42920;45.306;20.448;2022-12-10T05:53:07;308.10;2304.00
57030;DHT22;42920;45.306;20.448;2022-12-10T05:55:33;308.10;2304.00
57030;DHT22;42920;45.306;20.448;2022-12-10T05:57:59;308.10;2304.00
57030;DHT22;42920;45.306;20.448;2022-12-10T06:00:26;308.10;2304.00
57030;DHT22;42920;45.306;20.448;2022-12-10T06:02:53;308.10;2304.00
57030;DHT22;42920;45.306;20.448;2022-12-10T06:05:19;308.10;2304.00
57030;DHT22;42920;45.306;20.448;2022-12-10T06:07:45;308.00;2304.00
57030;DHT22;42920;45.306;20.448;2022-12-10T06:10:11;307.90;2304.00
57030;DHT22;42920;45.306;20.448;2022-12-10T06:12:37;307.90;2304.00
57030;DHT22;42920;45.306;20.448;2022-12-10T06:15:04;307.90;2304.00
57030;DHT22;42920;45.306;20.448;2022-12-10T06:17:30;307.90;2304.00
57030;DHT22;42920;45.306;20.448;2022-12-10T06:19:56;307.90;2304.00
57030;DHT22;42920;45.306;20.448;2022-12-10T06:22:22;307.90;2304.00
57030;DHT22;42920;45.306;20.448;2022-12-10T06:24:48;307.90;2304.00
57030;DHT22;42920;45.306;20.448;2022-12-10T06:27:13;307.90;2304.00
57030;DHT22;42920;45.306;20.448;2022-12-10T06:29:40;307.80;2304.00
57030;DHT22;42920;45.306;20.448;2022-12-10T06:32:06;307.80;2304.00
57030;DHT22;42920;45.306;20.448;2022-12-10T06:34:32;307.80;2304.00
57030;DHT22;42920;45.306;20.448;2022-12-10T06:36:58;307.80;2304.00
57030;DHT22;42920;45.306;20.448;2022-12-10T06:39:23;307.80;2304.00
57030;DHT22;42920;45.306;20.448;2022-12-10T06:41:49;307.80;2304.00
57030;DHT22;42920;45.306;20.448;2022-12-10T06:44:14;307.80;2304.00
57030;DHT22;42920;45.306;20.448;2022-12-10T06:46:40;307.90;2304.00
57030;DHT22;42920;45.306;20.448;2022-12-10T06:49:07;307.90;2304.00
57030;DHT22;42920;45.306;20.448;2022-12-10T06:51:34;307.90;2304.00
57030;DHT22;42920;45.306;20.448;2022-12-10T06:54:00;308.00;2304.00
57030;DHT22;42920;45.306;20.448;2022-12-10T06:56:25;308.10;2304.00
57030;DHT22;42920;45.306;20.448;2022-12-10T06:58:51;308.10;2304.00
57030;DHT22;42920;45.306;20.448;2022-12-10T07:01:23;308.10;2304.00
57030;DHT22;42920;45.306;20.448;2022-12-10T07:03:54;308.10;2304.00
57030;DHT22;42920;45.306;20.448;2022-12-10T07:06:21;332.80;2329.60
57030;DHT22;42920;45.306;20.448;2022-12-10T07:08:47;332.90;2329.60
57030;DHT22;42920;45.306;20.448;2022-12-10T07:11:15;332.90;2329.60
57030;DHT22;42920;45.306;20.448;2022-12-10T07:13:41;332.90;2329.60
57030;DHT22;42920;45.306;20.448;2022-12-10T07:16:16;332.90;2329.60
57030;DHT22;42920;45.306;20.448;2022-12-10T07:18:43;332.90;2329.60
57030;DHT22;42920;45.306;20.448;2022-12-10T07:23:45;332.90;2329.60
57030;DHT22;42920;45.306;20.448;2022-12-10T07:26:11;332.90;2329.60
57030;DHT22;42920;45.306;20.448;2022-12-10T07:28:37;332.90;2329.60
57030;DHT22;42920;45.306;20.448;2022-12-10T07:31:04;332.90;2329.60
57030;DHT22;42920;45.306;20.448;2022-12-10T07:33:29;332.90;2329.60
57030;DHT22;42920;45.306;20.448;2022-12-10T07:35:55;332.90;2329.60
57030;DHT22;42920;45.306;20.448;2022-12-10T07:38:22;333.00;2329.60
57030;DHT22;42920;45.306;20.448;2022-12-10T07:40:49;333.00;2329.60
57030;DHT22;42920;45.306;20.448;2022-12-10T07:43:14;333.00;2329.60
57030;DHT22;42920;45.306;20.448;2022-12-10T07:45:40;332.90;2329.60
57030;DHT22;42920;45.306;20.448;2022-12-10T07:48:06;333.00;2329.60
57030;DHT22;42920;45.306;20.448;2022-12-10T07:50:32;333.00;2329.60
57030;DHT22;42920;45.306;20.448;2022-12-10T07:52:57;333.10;2329.60
57030;DHT22;42920;45.306;20.448;2022-12-10T07:55:23;333.20;2329.60
57030;DHT22;42920;45.306;20.448;2022-12-10T07:57:49;333.20;2329.60
57030;DHT22;42920;45.306;20.448;2022-12-10T08:00:15;333.10;2329.60
57030;DHT22;42920;45.306;20.448;2022-12-10T08:02:40;333.10;2329.60
57030;DHT22;42920;45.306;20.448;2022-12-10T08:05:06;333.10;2329.60
57030;DHT22;42920;45.306;20.448;2022-12-10T08:07:33;333.10;2329.60
57030;DHT22;42920;45.306;20.448;2022-12-10T08:09:58;333.10;2099.20
57030;DHT22;42920;45.306;20.448;2022-12-10T08:12:24;333.10;2124.80
57030;DHT22;42920;45.306;20.448;2022-12-10T08:14:50;333.20;2329.60
57030;DHT22;42920;45.306;20.448;2022-12-10T08:17:16;333.20;2329.60
57030;DHT22;42920;45.306;20.448;2022-12-10T08:19:41;333.20;2329.60
57030;DHT22;42920;45.306;20.448;2022-12-10T08:22:07;333.20;2329.60
57030;DHT22;42920;45.306;20.448;2022-12-10T08:24:33;333.30;2329.60
57030;DHT22;42920;45.306;20.448;2022-12-10T08:26:58;333.20;2329.60
57030;DHT22;42920;45.306;20.448;2022-12-10T08:29:24;333.20;1971.20
57030;DHT22;42920;45.306;20.448;2022-12-10T08:31:50;333.20;2329.60
57030;DHT22;42920;45.306;20.448;2022-12-10T08:34:17;333.20;2329.60
57030;DHT22;42920;45.306;20.448;2022-12-10T08:36:44;333.30;2150.40
57030;DHT22;42920;45.306;20.448;2022-12-10T08:39:10;333.20;2329.60
57030;DHT22;42920;45.306;20.448;2022-12-10T08:41:41;333.20;2329.60
57030;DHT22;42920;45.306;20.448;2022-12-10T08:44:07;333.20;2329.60
57030;DHT22;42920;45.306;20.448;2022-12-10T08:46:32;333.20;2329.60
57030;DHT22;42920;45.306;20.448;2022-12-10T08:48:58;333.20;2329.60
57030;DHT22;42920;45.306;20.448;2022-12-10T08:51:25;333.20;2329.60
57030;DHT22;42920;45.306;20.448;2022-12-10T08:53:51;333.20;2329.60
57030;DHT22;42920;45.306;20.448;2022-12-10T08:56:17;333.20;2329.60
57030;DHT22;42920;45.306;20.448;2022-12-10T08:58:43;333.20;2329.60
57030;DHT22;42920;45.306;20.448;2022-12-10T09:01:14;333.20;2329.60
57030;DHT22;42920;45.306;20.448;2022-12-10T09:03:40;333.20;2022.40
57030;DHT22;42920;45.306;20.448;2022-12-10T09:06:09;333.40;2329.60
57030;DHT22;42920;45.306;20.448;2022-12-10T09:08:35;333.50;2329.60
57030;DHT22;42920;45.306;20.448;2022-12-10T09:11:07;333.60;2329.60
57030;DHT22;42920;45.306;20.448;2022-12-10T09:13:33;333.70;2329.60
57030;DHT22;42920;45.306;20.448;2022-12-10T09:15:59;358.40;2329.60
57030;DHT22;42920;45.306;20.448;2022-12-10T09:18:25;333.70;2329.60
57030;DHT22;42920;45.306;20.448;2022-12-10T09:20:51;358.50;2329.60
57030;DHT22;42920;45.306;20.448;2022-12-10T09:23:16;358.50;2329.60
57030;DHT22;42920;45.306;20.448;2022-12-10T09:25:42;358.50;2329.60
57030;DHT22;42920;45.306;20.448;2022-12-10T09:30:34;359.10;2329.60
57030;DHT22;42920;45.306;20.448;2022-12-10T09:35:26;384.00;2329.60
57030;DHT22;42920;45.306;20.448;2022-12-10T09:37:53;384.00;2329.60
57030;DHT22;42920;45.306;20.448;2022-12-10T09:45:35;384.00;2329.60
57030;DHT22;42920;45.306;20.448;2022-12-10T09:51:12;384.60;2329.60
57030;DHT22;42920;45.306;20.448;2022-12-10T09:53:39;384.70;2329.60
57030;DHT22;42920;45.306;20.448;2022-12-10T09:56:09;384.60;2329.60
57030;DHT22;42920;45.306;20.448;2022-12-10T09:58:41;384.50;2329.60
57030;DHT22;42920;45.306;20.448;2022-12-10T10:01:13;384.60;2329.60
57030;DHT22;42920;45.306;20.448;2022-12-10T10:03:41;384.90;2329.60
57030;DHT22;42920;45.306;20.448;2022-12-10T10:06:11;384.90;2329.60
57030;DHT22;42920;45.306;20.448;2022-12-10T10:08:48;384.70;2329.60
57030;DHT22;42920;45.306;20.448;2022-12-10T10:11:22;384.70;2329.60
57030;DHT22;42920;45.306;20.448;2022-12-10T10:14:14;384.60;2329.60
57030;DHT22;42920;45.306;20.448;2022-12-10T10:19:16;384.70;2329.60
57030;DHT22;42920;45.306;20.448;2022-12-10T10:21:45;384.90;2329.60
57030;DHT22;42920;45.306;20.448;2022-12-10T10:24:17;384.80;2329.60
57030;DHT22;42920;45.306;20.448;2022-12-10T10:26:43;384.90;2329.60
57030;DHT22;42920;45.306;20.448;2022-12-10T10:29:11;409.60;2355.20
57030;DHT22;42920;45.306;20.448;2022-12-10T10:31:40;384.90;2329.60
57030;DHT22;42920;45.306;20.448;2022-12-10T10:34:15;384.80;2329.60
57030;DHT22;42920;45.306;20.448;2022-12-10T10:36:42;384.70;2329.60
57030;DHT22;42920;45.306;20.448;2022-12-10T10:41:49;384.70;2329.60
57030;DHT22;42920;45.306;20.448;2022-12-10T10:44:20;384.70;2329.60
57030;DHT22;42920;45.306;20.448;2022-12-10T10:46:48;384.70;2329.60
57030;DHT22;42920;45.306;20.448;2022-12-10T10:49:31;384.70;2329.60
57030;DHT22;42920;45.306;20.448;2022-12-10T10:52:15;384.90;2329.60
57030;DHT22;42920;45.306;20.448;2022-12-10T10:54:43;409.60;2355.20
57030;DHT22;42920;45.306;20.448;2022-12-10T11:00:20;409.80;2355.20
57030;DHT22;42920;45.306;20.448;2022-12-10T11:02:48;409.80;2355.20
57030;DHT22;42920;45.306;20.448;2022-12-10T11:08:17;410.30;2355.20
57030;DHT22;42920;45.306;20.448;2022-12-10T11:11:16;435.20;2355.20
57030;DHT22;42920;45.306;20.448;2022-12-10T11:13:43;435.30;2355.20
57030;DHT22;42920;45.306;20.448;2022-12-10T11:18:40;435.20;2355.20
57030;DHT22;42920;45.306;20.448;2022-12-10T11:23:43;435.40;2355.20
57030;DHT22;42920;45.306;20.448;2022-12-10T11:49:25;435.70;2355.20
57030;DHT22;42920;45.306;20.448;2022-12-10T11:57:58;435.70;2355.20
57030;DHT22;42920;45.306;20.448;2022-12-10T12:03:51;435.60;2355.20
57030;DHT22;42920;45.306;20.448;2022-12-10T12:10:56;435.60;2355.20
57030;DHT22;42920;45.306;20.448;2022-12-10T12:13:57;435.50;2355.20
57030;DHT22;42920;45.306;20.448;2022-12-10T12:16:46;435.50;2355.20
57030;DHT22;42920;45.306;20.448;2022-12-10T12:21:40;435.40;2355.20
57030;DHT22;42920;45.306;20.448;2022-12-10T12:24:18;435.40;2355.20
57030;DHT22;42920;45.306;20.448;2022-12-10T12:26:57;435.30;2355.20
57030;DHT22;42920;45.306;20.448;2022-12-10T12:29:33;435.30;2355.20
57030;DHT22;42920;45.306;20.448;2022-12-10T12:34:57;435.30;2355.20
57030;DHT22;42920;45.306;20.448;2022-12-10T12:37:34;435.20;2355.20
57030;DHT22;42920;45.306;20.448;2022-12-10T12:42:58;435.20;2355.20
57030;DHT22;42920;45.306;20.448;2022-12-10T12:45:36;410.50;2355.20
57030;DHT22;42920;45.306;20.448;2022-12-10T12:50:57;410.50;2355.20
57030;DHT22;42920;45.306;20.448;2022-12-10T12:53:24;410.50;2355.20
57030;DHT22;42920;45.306;20.448;2022-12-10T13:03:50;410.50;2355.20
57030;DHT22;42920;45.306;20.448;2022-12-10T13:06:22;410.40;2355.20
57030;DHT22;42920;45.306;20.448;2022-12-10T13:09:26;410.40;2355.20
57030;DHT22;42920;45.306;20.448;2022-12-10T13:14:34;410.40;2355.20
57030;DHT22;42920;45.306;20.448;2022-12-10T13:17:33;410.40;2355.20
57030;DHT22;42920;45.306;20.448;2022-12-10T13:23:02;410.30;2355.20
57030;DHT22;42920;45.306;20.448;2022-12-10T13:28:39;410.30;2355.20
57030;DHT22;42920;45.306;20.448;2022-12-10T13:31:17;410.20;2355.20
57030;DHT22;42920;45.306;20.448;2022-12-10T13:36:21;410.20;2355.20
57030;DHT22;42920;45.306;20.448;2022-12-10T13:39:31;410.20;2355.20
57030;DHT22;42920;45.306;20.448;2022-12-10T13:55:53;410.00;2355.20
57030;DHT22;42920;45.306;20.448;2022-12-10T14:04:11;410.00;2355.20
57030;DHT22;42920;45.306;20.448;2022-12-10T14:06:43;409.90;2355.20
57030;DHT22;42920;45.306;20.448;2022-12-10T14:09:15;409.90;2355.20
57030;DHT22;42920;45.306;20.448;2022-12-10T14:12:01;409.90;2355.20
57030;DHT22;42920;45.306;20.448;2022-12-10T14:14:34;409.90;2355.20
57030;DHT22;42920;45.306;20.448;2022-12-10T14:17:18;409.90;2355.20
57030;DHT22;42920;45.306;20.448;2022-12-10T14:19:46;409.90;2355.20
57030;DHT22;42920;45.306;20.448;2022-12-10T14:22:16;409.90;2355.20
57030;DHT22;42920;45.306;20.448;2022-12-10T14:24:48;410.00;2355.20
57030;DHT22;42920;45.306;20.448;2022-12-10T14:27:24;410.00;2355.20
57030;DHT22;42920;45.306;20.448;2022-12-10T14:30:01;410.00;2355.20
57030;DHT22;42920;45.306;20.448;2022-12-10T14:32:33;410.00;2355.20
57030;DHT22;42920;45.306;20.448;2022-12-10T14:35:00;410.00;2355.20
57030;DHT22;42920;45.306;20.448;2022-12-10T14:37:33;410.00;2355.20
57030;DHT22;42920;45.306;20.448;2022-12-10T14:40:00;410.00;2355.20
57030;DHT22;42920;45.306;20.448;2022-12-10T14:42:27;410.00;2355.20
57030;DHT22;42920;45.306;20.448;2022-12-10T14:45:02;410.00;2355.20
57030;DHT22;42920;45.306;20.448;2022-12-10T14:47:36;410.00;2355.20
57030;DHT22;42920;45.306;20.448;2022-12-10T14:50:09;409.90;2355.20
57030;DHT22;42920;45.306;20.448;2022-12-10T14:52:42;409.90;2355.20
57030;DHT22;42920;45.306;20.448;2022-12-10T14:55:16;409.90;2355.20
57030;DHT22;42920;45.306;20.448;2022-12-10T14:57:49;409.90;2355.20
57030;DHT22;42920;45.306;20.448;2022-12-10T15:00:19;409.80;2355.20
57030;DHT22;42920;45.306;20.448;2022-12-10T15:02:49;409.80;2355.20
57030;DHT22;42920;45.306;20.448;2022-12-10T15:05:23;409.70;2355.20
57030;DHT22;42920;45.306;20.448;2022-12-10T15:10:32;409.70;2355.20
57030;DHT22;42920;45.306;20.448;2022-12-10T15:12:59;409.60;2355.20
57030;DHT22;42920;45.306;20.448;2022-12-10T15:15:30;409.60;2355.20
57030;DHT22;42920;45.306;20.448;2022-12-10T15:18:16;409.60;2355.20
57030;DHT22;42920;45.306;20.448;2022-12-10T15:21:03;384.90;2329.60
57030;DHT22;42920;45.306;20.448;2022-12-10T15:25:59;384.80;2329.60
57030;DHT22;42920;45.306;20.448;2022-12-10T15:28:26;384.80;2329.60
57030;DHT22;42920;45.306;20.448;2022-12-10T15:38:46;384.70;2329.60
57030;DHT22;42920;45.306;20.448;2022-12-10T15:44:05;384.70;2329.60
57030;DHT22;42920;45.306;20.448;2022-12-10T15:46:32;384.60;2329.60
57030;DHT22;42920;45.306;20.448;2022-12-10T15:48:57;384.60;2329.60
57030;DHT22;42920;45.306;20.448;2022-12-10T15:51:24;384.60;2329.60
57030;DHT22;42920;45.306;20.448;2022-12-10T15:53:51;384.60;2329.60
57030;DHT22;42920;45.306;20.448;2022-12-10T15:56:16;384.60;2329.60
57030;DHT22;42920;45.306;20.448;2022-12-10T15:58:42;384.60;2329.60
57030;DHT22;42920;45.306;20.448;2022-12-10T16:01:12;384.60;2329.60
57030;DHT22;42920;45.306;20.448;2022-12-10T16:03:38;384.50;2329.60
57030;DHT22;42920;45.306;20.448;2022-12-10T16:06:06;384.50;2329.60
57030;DHT22;42920;45.306;20.448;2022-12-10T16:08:32;384.50;2329.60
57030;DHT22;42920;45.306;20.448;2022-12-10T16:11:05;384.40;2329.60
57030;DHT22;42920;45.306;20.448;2022-12-10T16:13:36;384.40;2329.60
57030;DHT22;42920;45.306;20.448;2022-12-10T16:16:08;384.40;2329.60
57030;DHT22;42920;45.306;20.448;2022-12-10T16:18:35;384.40;2329.60
57030;DHT22;42920;45.306;20.448;2022-12-10T16:21:03;384.40;2329.60
57030;DHT22;42920;45.306;20.448;2022-12-10T16:23:30;384.40;2329.60
57030;DHT22;42920;45.306;20.448;2022-12-10T16:25:56;384.40;2329.60
57030;DHT22;42920;45.306;20.448;2022-12-10T16:28:23;384.40;2329.60
57030;DHT22;42920;45.306;20.448;2022-12-10T16:30:57;384.20;2329.60
57030;DHT22;42920;45.306;20.448;2022-12-10T16:33:24;384.30;2329.60
57030;DHT22;42920;45.306;20.448;2022-12-10T16:35:51;384.30;2329.60
57030;DHT22;42920;45.306;20.448;2022-12-10T16:38:18;384.30;2329.60
57030;DHT22;42920;45.306;20.448;2022-12-10T16:40:45;384.40;2329.60
57030;DHT22;42920;45.306;20.448;2022-12-10T16:43:16;384.40;2329.60
57030;DHT22;42920;45.306;20.448;2022-12-10T16:45:43;384.40;2329.60
57030;DHT22;42920;45.306;20.448;2022-12-10T16:48:09;384.40;2329.60
57030;DHT22;42920;45.306;20.448;2022-12-10T16:50:35;384.30;2329.60
57030;DHT22;42920;45.306;20.448;2022-12-10T16:53:24;384.30;2329.60
57030;DHT22;42920;45.306;20.448;2022-12-10T16:55:51;384.30;2329.60
57030;DHT22;42920;45.306;20.448;2022-12-10T16:58:17;384.30;2329.60
57030;DHT22;42920;45.306;20.448;2022-12-10T17:00:48;384.40;2329.60
57030;DHT22;42920;45.306;20.448;2022-12-10T17:03:16;384.30;2329.60
57030;DHT22;42920;45.306;20.448;2022-12-10T17:05:59;384.30;2329.60
57030;DHT22;42920;45.306;20.448;2022-12-10T17:08:26;384.30;2329.60
57030;DHT22;42920;45.306;20.448;2022-12-10T17:10:53;384.30;2329.60
57030;DHT22;42920;45.306;20.448;2022-12-10T17:13:38;384.30;2329.60
57030;DHT22;42920;45.306;20.448;2022-12-10T17:16:04;384.30;2329.60
57030;DHT22;42920;45.306;20.448;2022-12-10T17:18:30;384.30;2329.60
57030;DHT22;42920;45.306;20.448;2022-12-10T17:20:57;384.30;2329.60
57030;DHT22;42920;45.306;20.448;2022-12-10T17:23:23;384.30;2329.60
57030;DHT22;42920;45.306;20.448;2022-12-10T17:25:49;384.30;2329.60